createdAt,value
2023-03-29T00:02:07.968Z,101156.88
2023-03-29T00:04:35.245Z,101160.66
2023-03-29T00:07:04.801Z,101168.19
2023-03-29T00:09:33.552Z,101169.97
2023-03-29T00:12:01.979Z,101177.41
2023-03-29T00:14:31.181Z,101169.72
2023-03-29T00:16:59.112Z,101165.09
2023-03-29T00:19:26.387Z,101167.16
2023-03-29T00:21:53.347Z,101166.72
2023-03-29T00:24:21.623Z,101166.75
2023-03-29T00:26:48.783Z,101171.31
2023-03-29T00:29:16.356Z,101173.97
2023-03-29T00:31:46.174Z,101163.75
2023-03-29T00:34:13.492Z,101157.59
2023-03-29T00:36:40.730Z,101153.72
2023-03-29T00:39:07.745Z,101152.72
2023-03-29T00:41:34.897Z,101145.22
2023-03-29T00:44:04.628Z,101138.38
2023-03-29T00:46:32.146Z,101131.09
2023-03-29T00:49:05.559Z,101130.09
2023-03-29T00:51:38.494Z,101129.25
2023-03-29T00:54:10.999Z,101134.44
2023-03-29T00:56:40.828Z,101119.03
2023-03-29T00:59:14.857Z,101120.28
2023-03-29T01:01:54.518Z,101118.44
2023-03-29T01:04:42.869Z,101116.34
2023-03-29T01:07:18.288Z,101120.94
2023-03-29T01:09:53.956Z,101109.78
2023-03-29T01:12:25.376Z,101111.53
2023-03-29T01:14:59.464Z,101109.53
2023-03-29T01:17:26.603Z,101119.13
2023-03-29T01:20:08.179Z,101121.47
2023-03-29T01:23:02.369Z,101117.22
2023-03-29T01:26:03.353Z,101112.75
2023-03-29T01:28:47.098Z,101109.41
2023-03-29T01:31:56.067Z,101108.16
2023-03-29T01:34:31.969Z,101112.81
2023-03-29T01:37:08.528Z,101122.59
2023-03-29T01:39:35.609Z,101129.03
2023-03-29T01:42:24.148Z,101131.44
2023-03-29T01:45:12.895Z,101133.59
2023-03-29T01:47:48.916Z,101129.94
2023-03-29T01:50:29.402Z,101131.50
2023-03-29T01:53:09.583Z,101139.47
2023-03-29T01:55:41.830Z,101143.22
2023-03-29T01:58:12.636Z,101127.59
2023-03-29T02:00:41.541Z,101135.28
2023-03-29T02:03:10.183Z,101141.59
2023-03-29T02:05:42.723Z,101142.81
2023-03-29T02:08:13.220Z,101132.88
2023-03-29T02:10:40.809Z,101128.66
2023-03-29T02:13:07.809Z,101120.16
2023-03-29T02:15:34.768Z,101117.50
2023-03-29T02:18:04.240Z,101102.72
2023-03-29T02:20:40.809Z,101105.81
2023-03-29T02:23:12.567Z,101107.22
2023-03-29T02:25:40.376Z,101106.81
2023-03-29T02:28:07.971Z,101108.19
2023-03-29T02:31:20.385Z,101111.00
2023-03-29T02:33:56.047Z,101113.34
2023-03-29T02:36:46.971Z,101104.56
2023-03-29T02:39:16.557Z,101095.06
2023-03-29T02:41:47.326Z,101099.97
2023-03-29T02:44:18.953Z,101101.91
2023-03-29T02:46:49.631Z,101107.75
2023-03-29T02:49:18.430Z,101100.22
2023-03-29T02:51:49.335Z,101108.72
2023-03-29T02:54:20.299Z,101096.88
2023-03-29T02:56:56.650Z,101094.31
2023-03-29T02:59:23.669Z,101096.97
2023-03-29T03:01:50.901Z,101097.25
2023-03-29T03:04:18.817Z,101099.91
2023-03-29T03:06:45.697Z,101092.50
2023-03-29T03:09:13.728Z,101086.78
2023-03-29T03:11:43.351Z,101083.00
2023-03-29T03:14:11.173Z,101085.84
2023-03-29T03:16:38.180Z,101089.19
2023-03-29T03:19:05.494Z,101081.94
2023-03-29T03:21:32.555Z,101075.22
2023-03-29T03:24:00.244Z,101073.69
2023-03-29T03:26:30.368Z,101080.53
2023-03-29T03:28:57.494Z,101083.59
2023-03-29T03:31:57.780Z,101086.69
2023-03-29T03:34:47.629Z,101090.03
2023-03-29T03:37:15.688Z,101086.97
2023-03-29T03:39:42.570Z,101089.50
2023-03-29T03:42:10.695Z,101093.94
2023-03-29T03:44:42.845Z,101094.66
2023-03-29T03:47:28.631Z,101093.28
2023-03-29T03:49:58.561Z,101095.91
2023-03-29T03:52:27.226Z,101093.97
2023-03-29T03:54:54.110Z,101093.81
2023-03-29T03:57:40.062Z,101094.38
2023-03-29T04:00:21.991Z,101086.25
2023-03-29T04:03:11.342Z,101088.63
2023-03-29T04:05:40.569Z,101090.72
2023-03-29T04:08:08.743Z,101083.06
2023-03-29T04:10:57.800Z,101083.06
2023-03-29T04:13:35.047Z,101077.88
2023-03-29T04:16:28.778Z,101076.34
2023-03-29T04:19:00.328Z,101083.47
2023-03-29T04:21:28.369Z,101078.28
2023-03-29T04:23:55.403Z,101076.63
2023-03-29T04:26:23.152Z,101069.59
2023-03-29T04:29:05.431Z,101065.09
2023-03-29T04:31:56.709Z,101070.72
2023-03-29T04:34:46.747Z,101069.84
2023-03-29T04:37:13.699Z,101059.94
2023-03-29T04:39:41.338Z,101063.03
2023-03-29T04:42:09.115Z,101053.34
2023-03-29T04:44:36.090Z,101063.69
2023-03-29T04:47:06.858Z,101066.22
2023-03-29T04:49:33.853Z,101071.53
2023-03-29T04:52:01.141Z,101072.75
2023-03-29T04:54:30.550Z,101058.09
2023-03-29T04:57:11.447Z,101055.03
2023-03-29T05:00:01.631Z,101035.50
2023-03-29T05:02:51.891Z,101041.59
2023-03-29T05:05:19.597Z,101047.38
2023-03-29T05:07:48.201Z,101047.34
2023-03-29T05:10:18.544Z,101058.00
2023-03-29T05:12:45.608Z,101051.88
2023-03-29T05:15:12.667Z,101039.53
2023-03-29T05:17:39.781Z,101039.88
2023-03-29T05:20:11.863Z,101030.41
2023-03-29T05:22:40.552Z,101031.41
2023-03-29T05:25:12.007Z,101030.47
2023-03-29T05:27:40.694Z,101033.63
2023-03-29T05:30:10.457Z,101020.91
2023-03-29T05:33:02.679Z,101034.94
2023-03-29T05:35:30.491Z,101022.47
2023-03-29T05:37:58.561Z,101017.38
2023-03-29T05:40:26.451Z,101021.03
2023-03-29T05:43:19.747Z,101017.72
2023-03-29T05:45:46.775Z,101014.16
2023-03-29T05:48:13.756Z,101027.88
2023-03-29T05:50:47.200Z,101033.22
2023-03-29T05:53:14.637Z,101037.13
2023-03-29T05:55:42.678Z,101041.03
2023-03-29T05:58:13.408Z,101040.44
2023-03-29T06:00:43.117Z,101052.03
2023-03-29T06:03:32.704Z,101053.78
2023-03-29T06:06:05.166Z,101055.22
2023-03-29T06:08:35.297Z,101064.41
2023-03-29T06:11:13.596Z,101066.03
2023-03-29T06:14:19.782Z,101067.19
2023-03-29T06:16:53.683Z,101060.44
2023-03-29T06:19:21.108Z,101057.25
2023-03-29T06:21:47.968Z,101056.28
2023-03-29T06:24:20.926Z,101066.50
2023-03-29T06:26:53.976Z,101079.91
2023-03-29T06:29:21.160Z,101077.34
2023-03-29T06:31:49.471Z,101089.03
2023-03-29T06:34:44.981Z,101086.84
2023-03-29T06:37:25.043Z,101086.88
2023-03-29T06:40:01.646Z,101074.59
2023-03-29T06:42:38.106Z,101077.91
2023-03-29T06:45:29.474Z,101067.97
2023-03-29T06:47:59.150Z,101057.78
2023-03-29T06:50:26.570Z,101053.69
2023-03-29T06:53:04.749Z,101057.41
2023-03-29T06:55:34.688Z,101059.06
2023-03-29T06:58:15.688Z,101049.88
2023-03-29T07:00:43.145Z,101063.13
2023-03-29T07:03:25.450Z,101062.69
2023-03-29T07:06:03.025Z,101076.34
2023-03-29T07:08:32.018Z,101091.31
2023-03-29T07:11:07.365Z,101089.78
2023-03-29T07:13:37.537Z,101087.22
2023-03-29T07:16:08.218Z,101087.25
2023-03-29T07:19:05.390Z,101074.19
2023-03-29T07:21:53.566Z,101078.38
2023-03-29T07:24:23.856Z,101077.53
2023-03-29T07:27:03.251Z,101072.81
2023-03-29T07:29:32.416Z,101062.66
2023-03-29T07:31:59.402Z,101066.97
2023-03-29T07:34:44.851Z,101069.63
2023-03-29T07:37:37.663Z,101058.50
2023-03-29T07:40:11.564Z,101062.56
2023-03-29T07:42:57.346Z,101074.97
2023-03-29T07:45:28.783Z,101084.31
2023-03-29T07:48:06.495Z,101077.63
2023-03-29T07:50:53.755Z,101082.94
2023-03-29T07:53:27.179Z,101064.91
2023-03-29T07:55:56.191Z,101064.41
2023-03-29T07:58:42.075Z,101061.41
2023-03-29T08:01:10.946Z,101063.53
2023-03-29T08:03:58.069Z,101056.69
2023-03-29T08:06:42.814Z,101056.81
2023-03-29T08:09:09.972Z,101061.47
2023-03-29T08:11:40.023Z,101050.56
2023-03-29T08:14:15.279Z,101052.84
2023-03-29T08:16:57.348Z,101059.59
2023-03-29T08:19:24.441Z,101052.22
2023-03-29T08:22:01.433Z,101043.19
2023-03-29T08:24:36.568Z,101037.13
2023-03-29T08:27:06.897Z,101043.97
2023-03-29T08:29:33.838Z,101039.22
2023-03-29T08:32:00.944Z,101043.31
2023-03-29T08:34:27.988Z,101046.72
2023-03-29T08:37:21.023Z,101045.28
2023-03-29T08:39:50.817Z,101042.47
2023-03-29T08:42:51.266Z,101038.81
2023-03-29T08:45:51.051Z,101040.75
2023-03-29T08:48:44.799Z,101040.47
2023-03-29T08:51:30.217Z,101047.66
2023-03-29T08:54:02.359Z,101051.69
2023-03-29T08:56:38.780Z,101053.94
2023-03-29T08:59:26.903Z,101040.19
2023-03-29T09:01:57.442Z,101049.16
2023-03-29T09:04:30.717Z,101044.03
2023-03-29T09:07:26.448Z,101033.75
2023-03-29T09:09:55.011Z,101024.13
2023-03-29T09:13:00.279Z,101024.63
2023-03-29T09:15:38.525Z,101028.78
2023-03-29T09:18:47.674Z,101022.72
2023-03-29T09:21:50.892Z,101031.34
2023-03-29T09:24:54.257Z,101031.97
2023-03-29T09:27:44.227Z,101030.72
2023-03-29T09:31:25.478Z,101025.50
2023-03-29T09:33:59.426Z,101023.63
2023-03-29T09:36:51.400Z,101022.72
2023-03-29T09:39:21.469Z,101020.13
2023-03-29T09:42:14.376Z,101029.16
2023-03-29T09:44:50.652Z,101011.16
2023-03-29T09:47:34.417Z,101005.47
2023-03-29T09:50:29.523Z,101009.59
2023-03-29T09:52:59.087Z,101011.28
2023-03-29T09:55:31.410Z,101018.09
2023-03-29T09:58:28.838Z,101001.59
2023-03-29T10:01:00.822Z,101003.44
2023-03-29T10:03:31.575Z,100994.56
2023-03-29T10:06:11.627Z,100981.81
2023-03-29T10:08:47.928Z,100978.91
2023-03-29T10:11:20.701Z,100972.91
2023-03-29T10:13:51.229Z,100967.59
2023-03-29T10:16:29.285Z,100970.69
2023-03-29T10:18:56.782Z,100960.38
2023-03-29T10:21:24.038Z,100963.72
2023-03-29T10:23:59.584Z,100958.13
2023-03-29T10:26:32.997Z,100951.44
2023-03-29T10:29:03.326Z,100945.78
2023-03-29T10:31:34.277Z,100941.97
2023-03-29T10:34:04.520Z,100946.91
2023-03-29T10:36:31.620Z,100947.66
2023-03-29T10:39:02.215Z,100940.94
2023-03-29T10:41:34.360Z,100934.63
2023-03-29T10:44:01.753Z,100925.41
2023-03-29T10:46:40.972Z,100925.00
2023-03-29T10:49:20.936Z,100918.44
2023-03-29T10:51:49.686Z,100908.94
2023-03-29T10:54:23.451Z,100907.38
2023-03-29T10:56:56.824Z,100910.75
2023-03-29T10:59:27.861Z,100906.16
2023-03-29T11:02:13.586Z,100903.56
2023-03-29T11:04:49.064Z,100897.03
2023-03-29T11:07:24.599Z,100895.28
2023-03-29T11:10:02.315Z,100900.06
2023-03-29T11:12:49.892Z,100892.88
2023-03-29T11:15:38.939Z,100897.81
2023-03-29T11:18:41.872Z,100905.66
2023-03-29T11:21:46.157Z,100896.25
2023-03-29T11:24:34.931Z,100886.44
2023-03-29T11:27:10.987Z,100881.97
2023-03-29T11:29:59.919Z,100880.25
2023-03-29T11:32:33.621Z,100873.44
2023-03-29T11:35:32.743Z,100878.25
2023-03-29T11:38:23.736Z,100865.13
2023-03-29T11:41:09.667Z,100870.25
2023-03-29T11:43:39.566Z,100868.25
2023-03-29T11:46:27.645Z,100860.66
2023-03-29T11:49:03.133Z,100865.13
2023-03-29T11:51:37.081Z,100853.81
2023-03-29T11:54:27.257Z,100850.66
2023-03-29T11:57:18.416Z,100846.75
2023-03-29T11:59:50.254Z,100844.44
2023-03-29T12:02:29.860Z,100838.06
2023-03-29T12:05:00.169Z,100838.47
2023-03-29T12:07:33.352Z,100833.28
2023-03-29T12:10:07.307Z,100834.88
2023-03-29T12:12:49.242Z,100821.59
2023-03-29T12:15:20.544Z,100816.69
2023-03-29T12:17:50.845Z,100819.38
2023-03-29T12:20:31.622Z,100811.09
2023-03-29T12:23:01.174Z,100808.13
2023-03-29T12:25:41.445Z,100799.78
2023-03-29T12:28:26.286Z,100794.63
2023-03-29T12:31:27.912Z,100787.22
2023-03-29T12:34:25.872Z,100775.84
2023-03-29T12:37:32.233Z,100772.28
2023-03-29T12:40:28.568Z,100775.78
2023-03-29T12:43:33.386Z,100762.22
2023-03-29T12:46:27.837Z,100744.53
2023-03-29T12:48:57.670Z,100746.03
2023-03-29T12:51:34.617Z,100748.75
2023-03-29T12:54:28.145Z,100739.56
2023-03-29T12:57:00.637Z,100742.72
2023-03-29T12:59:40.355Z,100736.78
2023-03-29T13:02:14.230Z,100739.47
2023-03-29T13:04:43.812Z,100744.94
2023-03-29T13:07:23.096Z,100740.59
2023-03-29T13:09:57.150Z,100738.06
2023-03-29T13:12:39.703Z,100731.22
2023-03-29T13:15:23.815Z,100738.00
2023-03-29T13:18:16.041Z,100739.34
2023-03-29T13:21:10.602Z,100737.19
2023-03-29T13:23:59.918Z,100740.50
2023-03-29T13:26:33.023Z,100731.84
2023-03-29T13:29:31.010Z,100720.47
2023-03-29T13:32:16.396Z,100731.06
2023-03-29T13:34:58.086Z,100720.22
2023-03-29T13:37:34.598Z,100713.97
2023-03-29T13:40:02.031Z,100714.22
2023-03-29T13:42:34.834Z,100707.78
2023-03-29T13:45:21.967Z,100717.94
2023-03-29T13:48:02.610Z,100716.28
2023-03-29T13:51:05.329Z,100717.72
2023-03-29T13:53:40.418Z,100695.34
2023-03-29T13:56:15.856Z,100708.63
2023-03-29T13:58:49.997Z,100705.91
2023-03-29T14:01:53.742Z,100696.91
2023-03-29T14:04:48.792Z,100689.06
2023-03-29T14:07:21.364Z,100684.72
2023-03-29T14:09:50.514Z,100694.88
2023-03-29T14:12:17.934Z,100689.53
2023-03-29T14:14:58.421Z,100681.59
2023-03-29T14:17:30.509Z,100676.13
2023-03-29T14:20:09.154Z,100676.56
2023-03-29T14:22:36.252Z,100663.66
2023-03-29T14:25:12.233Z,100674.19
2023-03-29T14:27:39.149Z,100663.25
2023-03-29T14:30:38.481Z,100666.56
2023-03-29T14:33:05.634Z,100657.03
2023-03-29T14:35:33.542Z,100653.88
2023-03-29T14:38:01.830Z,100648.31
2023-03-29T14:40:31.087Z,100638.16
2023-03-29T14:43:00.493Z,100654.91
2023-03-29T14:45:27.782Z,100633.97
2023-03-29T14:47:54.837Z,100644.31
2023-03-29T14:50:27.108Z,100640.53
2023-03-29T14:52:54.794Z,100640.56
2023-03-29T14:55:24.041Z,100635.72
2023-03-29T14:57:54.911Z,100631.16
2023-03-29T15:00:24.865Z,100622.63
2023-03-29T15:03:16.297Z,100625.22
2023-03-29T15:05:49.156Z,100623.97
2023-03-29T15:08:23.748Z,100616.25
2023-03-29T15:10:51.039Z,100625.34
2023-03-29T15:13:26.327Z,100624.75
2023-03-29T15:15:59.054Z,100625.88
2023-03-29T15:18:40.295Z,100622.66
2023-03-29T15:21:09.548Z,100626.94
2023-03-29T15:23:41.903Z,100623.25
2023-03-29T15:26:27.906Z,100625.72
2023-03-29T15:29:12.643Z,100612.63
2023-03-29T15:31:42.237Z,100612.34
2023-03-29T15:34:14.983Z,100611.69
2023-03-29T15:36:45.481Z,100612.09
2023-03-29T15:39:14.594Z,100618.00
2023-03-29T15:41:42.689Z,100613.22
2023-03-29T15:44:11.081Z,100611.56
2023-03-29T15:46:38.207Z,100611.75
2023-03-29T15:49:05.341Z,100616.69
2023-03-29T15:51:32.476Z,100620.44
2023-03-29T15:53:59.453Z,100623.41
2023-03-29T15:56:27.269Z,100616.69
2023-03-29T15:59:01.878Z,100612.59
2023-03-29T16:01:36.761Z,100603.06
2023-03-29T16:04:14.823Z,100604.53
2023-03-29T16:06:42.887Z,100609.03
2023-03-29T16:09:12.173Z,100607.88
2023-03-29T16:11:41.153Z,100601.69
2023-03-29T16:14:25.508Z,100593.63
2023-03-29T16:16:53.872Z,100598.22
2023-03-29T16:19:21.104Z,100591.81
2023-03-29T16:21:48.627Z,100591.84
2023-03-29T16:24:19.917Z,100587.69
2023-03-29T16:26:47.738Z,100585.44
2023-03-29T16:29:17.493Z,100589.38
2023-03-29T16:31:45.879Z,100591.75
2023-03-29T16:34:13.938Z,100592.41
2023-03-29T16:36:41.232Z,100583.59
2023-03-29T16:39:08.201Z,100583.94
2023-03-29T16:41:35.161Z,100589.72
2023-03-29T16:44:02.209Z,100591.84
2023-03-29T16:46:29.821Z,100596.88
2023-03-29T16:48:58.137Z,100583.94
2023-03-29T16:51:26.022Z,100601.88
2023-03-29T16:53:53.037Z,100601.03
2023-03-29T16:56:20.624Z,100603.97
2023-03-29T16:58:47.760Z,100595.25
2023-03-29T17:01:17.581Z,100596.72
2023-03-29T17:03:44.716Z,100612.88
2023-03-29T17:06:12.481Z,100609.56
2023-03-29T17:08:57.792Z,100607.09
2023-03-29T17:11:26.394Z,100605.63
2023-03-29T17:13:53.369Z,100606.44
2023-03-29T17:16:20.843Z,100602.94
2023-03-29T17:18:47.967Z,100605.00
2023-03-29T17:21:15.062Z,100610.59
2023-03-29T17:23:42.182Z,100615.56
2023-03-29T17:26:15.109Z,100606.66
2023-03-29T17:28:45.578Z,100605.84
2023-03-29T17:31:12.753Z,100604.59
2023-03-29T17:33:39.751Z,100615.56
2023-03-29T17:36:07.887Z,100620.53
2023-03-29T17:38:35.563Z,100625.91
2023-03-29T17:41:04.017Z,100628.41
2023-03-29T17:43:32.194Z,100629.47
2023-03-29T17:45:59.439Z,100636.91
2023-03-29T17:48:28.843Z,100641.25
2023-03-29T17:50:59.285Z,100645.81
2023-03-29T17:53:26.297Z,100645.81
2023-03-29T17:55:53.544Z,100634.84
2023-03-29T17:58:20.866Z,100637.75
2023-03-29T18:00:48.087Z,100638.13
2023-03-29T18:03:15.511Z,100652.00
2023-03-29T18:05:42.645Z,100652.00
2023-03-29T18:08:09.692Z,100662.16
2023-03-29T18:10:37.242Z,100659.06
2023-03-29T18:13:04.338Z,100654.28
2023-03-29T18:15:31.589Z,100652.25
2023-03-29T18:17:58.814Z,100661.97
2023-03-29T18:20:26.229Z,100661.13
2023-03-29T18:22:53.564Z,100665.06
2023-03-29T18:25:20.697Z,100662.75
2023-03-29T18:27:47.948Z,100669.19
2023-03-29T18:30:16.958Z,100666.91
2023-03-29T18:32:44.254Z,100673.94
2023-03-29T18:35:11.945Z,100670.81
2023-03-29T18:37:39.091Z,100666.44
2023-03-29T18:40:08.378Z,100662.91
2023-03-29T18:42:36.028Z,100673.22
2023-03-29T18:45:04.613Z,100671.06
2023-03-29T18:47:32.169Z,100669.19
2023-03-29T18:50:03.220Z,100674.34
2023-03-29T18:52:30.559Z,100676.34
2023-03-29T18:54:57.622Z,100690.66
2023-03-29T18:57:24.853Z,100691.72
2023-03-29T18:59:55.323Z,100687.34
2023-03-29T19:02:23.036Z,100693.69
2023-03-29T19:04:50.245Z,100702.56
2023-03-29T19:07:18.031Z,100691.41
2023-03-29T19:09:45.528Z,100697.09
2023-03-29T19:12:12.750Z,100697.50
2023-03-29T19:14:39.676Z,100693.78
2023-03-29T19:17:06.648Z,100696.94
2023-03-29T19:19:38.043Z,100696.94
2023-03-29T19:22:05.530Z,100692.47
2023-03-29T19:24:32.896Z,100699.94
2023-03-29T19:27:00.131Z,100695.03
2023-03-29T19:29:27.679Z,100696.78
2023-03-29T19:31:56.603Z,100697.56
2023-03-29T19:34:24.628Z,100695.47
2023-03-29T19:36:55.546Z,100687.50
2023-03-29T19:39:27.562Z,100686.69
2023-03-29T19:41:57.478Z,100686.34
2023-03-29T19:44:24.640Z,100681.38
2023-03-29T19:46:55.133Z,100673.31
2023-03-29T19:49:25.324Z,100686.34
2023-03-29T19:51:54.734Z,100686.75
2023-03-29T19:54:22.174Z,100688.56
2023-03-29T19:56:51.314Z,100678.41
2023-03-29T19:59:22.747Z,100679.44
2023-03-29T20:01:53.193Z,100679.88
2023-03-29T20:04:23.051Z,100663.56
2023-03-29T20:06:52.173Z,100665.66
2023-03-29T20:09:19.168Z,100664.84
2023-03-29T20:11:47.112Z,100671.06
2023-03-29T20:14:14.240Z,100674.50
2023-03-29T20:16:44.998Z,100670.09
2023-03-29T20:19:17.893Z,100677.66
2023-03-29T20:21:46.244Z,100676.25
2023-03-29T20:24:13.221Z,100681.34
2023-03-29T20:26:40.373Z,100681.94
2023-03-29T20:29:15.040Z,100692.47
2023-03-29T20:31:42.312Z,100687.75
2023-03-29T20:34:09.554Z,100682.78
2023-03-29T20:36:37.708Z,100682.72
2023-03-29T20:39:05.147Z,100685.81
2023-03-29T20:41:33.985Z,100673.00
2023-03-29T20:44:03.268Z,100676.34
2023-03-29T20:46:33.628Z,100664.84
2023-03-29T20:49:05.273Z,100665.84
2023-03-29T20:51:32.477Z,100660.88
2023-03-29T20:54:07.432Z,100658.22
2023-03-29T20:56:39.162Z,100662.16
2023-03-29T20:59:10.923Z,100666.31
2023-03-29T21:01:41.045Z,100672.00
2023-03-29T21:04:09.459Z,100670.47
2023-03-29T21:06:37.065Z,100674.44
2023-03-29T21:09:05.945Z,100664.97
2023-03-29T21:11:33.697Z,100667.50
2023-03-29T21:14:00.786Z,100675.78
2023-03-29T21:16:29.599Z,100680.38
2023-03-29T21:18:57.228Z,100679.97
2023-03-29T21:21:24.355Z,100683.09
2023-03-29T21:23:51.686Z,100671.09
2023-03-29T21:26:18.744Z,100683.34
2023-03-29T21:28:46.134Z,100665.69
2023-03-29T21:31:13.155Z,100661.56
2023-03-29T21:33:40.225Z,100675.69
2023-03-29T21:36:08.475Z,100670.25
2023-03-29T21:38:35.899Z,100671.09
2023-03-29T21:41:03.491Z,100670.69
2023-03-29T21:43:30.651Z,100666.56
2023-03-29T21:45:57.985Z,100675.69
2023-03-29T21:48:25.302Z,100671.53
2023-03-29T21:50:52.265Z,100661.56
2023-03-29T21:53:19.281Z,100666.13
2023-03-29T21:55:51.766Z,100664.47
2023-03-29T21:58:19.194Z,100684.56
2023-03-29T22:00:47.323Z,100687.69
2023-03-29T22:03:16.141Z,100682.06
2023-03-29T22:05:44.209Z,100682.72
2023-03-29T22:08:11.946Z,100683.75
2023-03-29T22:10:41.524Z,100681.88
2023-03-29T22:13:09.456Z,100680.84
2023-03-29T22:15:36.420Z,100677.31
2023-03-29T22:18:04.067Z,100674.00
2023-03-29T22:20:35.886Z,100670.06
2023-03-29T22:23:03.497Z,100677.13
2023-03-29T22:25:30.417Z,100684.16
2023-03-29T22:27:57.408Z,100680.00
2023-03-29T22:30:24.378Z,100675.44
2023-03-29T22:32:51.499Z,100670.69
2023-03-29T22:35:18.595Z,100665.47
2023-03-29T22:37:45.859Z,100672.53
2023-03-29T22:40:13.528Z,100669.44
2023-03-29T22:42:40.905Z,100669.41
2023-03-29T22:45:09.207Z,100677.69
2023-03-29T22:47:36.365Z,100667.31
2023-03-29T22:50:04.044Z,100671.25
2023-03-29T22:52:31.062Z,100674.75
2023-03-29T22:54:58.036Z,100670.41
2023-03-29T22:57:25.147Z,100665.66
2023-03-29T22:59:52.357Z,100668.34
2023-03-29T23:02:19.490Z,100670.81
2023-03-29T23:04:46.588Z,100673.91
2023-03-29T23:07:13.637Z,100675.56
2023-03-29T23:09:40.718Z,100663.75
2023-03-29T23:12:08.034Z,100667.66
2023-03-29T23:14:35.726Z,100665.97
2023-03-29T23:17:02.670Z,100661.66
2023-03-29T23:19:29.603Z,100655.63
2023-03-29T23:21:56.586Z,100649.25
2023-03-29T23:24:23.742Z,100653.16
2023-03-29T23:26:50.774Z,100644.22
2023-03-29T23:29:17.711Z,100639.28
2023-03-29T23:31:45.743Z,100646.47
2023-03-29T23:34:13.727Z,100640.69
2023-03-29T23:36:40.745Z,100643.38
2023-03-29T23:39:08.210Z,100648.13
2023-03-29T23:41:35.304Z,100651.22
2023-03-29T23:44:03.991Z,100655.34
2023-03-29T23:46:31.661Z,100654.31
2023-03-29T23:48:59.228Z,100653.09
2023-03-29T23:51:28.586Z,100653.47
2023-03-29T23:53:56.660Z,100649.91
2023-03-29T23:56:23.828Z,100655.94
2023-03-29T23:58:51.300Z,100647.47
